Time;durP1;ratioP1;P1;durP2;ratioP2;P2;SDS_P1;SDS_P2;PMS_P1;PMS_P2;Temp;Humidity;BMP_temperature;BMP_pressure;BME280_temperature;BME280_humidity;BME280_pressure;Samples;Min_cycle;Max_cycle;Signal;HPM_P1;HPM_P2
2021/04/05 04:01:22;;;;;;;10.87;5.63;;;4.00;93.60;;;;;;5572257;23;20517;-77
2021/04/05 04:04:01;;;;;;;12.37;5.63;;;4.10;92.70;;;;;;4963296;28;20942;-77
2021/04/05 04:06:36;;;;;;;12.70;5.70;;;4.10;93.00;;;;;;4954479;29;20391;-77
2021/04/05 04:09:04;;;;;;;12.37;4.90;;;4.10;92.90;;;;;;4952985;29;20425;-77
2021/04/05 04:11:33;;;;;;;7.50;4.77;;;4.10;93.00;;;;;;4954503;28;20459;-77
2021/04/05 04:14:03;;;;;;;18.17;6.50;;;4.00;92.80;;;;;;4954237;29;20465;-77
2021/04/05 04:16:29;;;;;;;14.60;5.33;;;4.20;92.00;;;;;;4954641;29;20407;-77
2021/04/05 04:18:56;;;;;;;15.20;5.87;;;4.20;92.10;;;;;;4953743;28;20920;-77
2021/04/05 04:21:22;;;;;;;14.43;6.20;;;4.20;92.20;;;;;;4954139;28;20441;-77
2021/04/05 04:23:48;;;;;;;13.20;6.00;;;4.30;91.90;;;;;;4954380;28;20415;-77
2021/04/05 04:26:14;;;;;;;14.33;4.70;;;4.30;91.70;;;;;;4954190;29;20832;-77
2021/04/05 04:28:43;;;;;;;8.83;4.70;;;4.20;91.80;;;;;;4953627;28;20465;-77
2021/04/05 04:31:09;;;;;;;12.10;5.60;;;4.20;92.00;;;;;;4953979;28;20250;-77
2021/04/05 04:33:35;;;;;;;13.03;4.60;;;4.30;91.70;;;;;;4954087;29;20887;-77
2021/04/05 04:36:01;;;;;;;9.50;5.13;;;4.30;91.80;;;;;;4954115;29;20183;-77
2021/04/05 04:38:27;;;;;;;13.60;6.40;;;4.50;91.30;;;;;;4953544;28;20647;-77
2021/04/05 04:40:53;;;;;;;11.07;5.33;;;4.50;90.90;;;;;;4953796;28;20435;-77
2021/04/05 04:43:19;;;;;;;14.30;5.53;;;4.50;91.10;;;;;;4954167;28;20465;-77
2021/04/05 04:45:46;;;;;;;12.77;6.43;;;4.50;92.00;;;;;;4954055;29;20265;-77
2021/04/05 04:48:12;;;;;;;14.97;6.10;;;4.50;92.40;;;;;;4953464;28;20411;-77
2021/04/05 04:50:38;;;;;;;18.33;6.03;;;4.70;91.90;;;;;;4953957;28;20430;-77
2021/04/05 04:53:04;;;;;;;14.97;5.13;;;4.70;91.60;;;;;;4953921;29;20462;-77
2021/04/05 04:55:30;;;;;;;11.13;5.53;;;4.70;91.80;;;;;;4954043;29;20310;-77
2021/04/05 04:57:57;;;;;;;19.47;6.30;;;4.70;92.20;;;;;;4952199;29;20415;-77
2021/04/05 05:00:28;;;;;;;11.57;6.00;;;4.70;92.40;;;;;;4953778;28;21015;-77
2021/04/05 05:02:54;;;;;;;11.97;6.40;;;4.70;92.50;;;;;;4952746;29;20419;-77
2021/04/05 05:05:22;;;;;;;18.23;5.53;;;4.60;93.20;;;;;;4953775;29;20454;-77
2021/04/05 05:07:49;;;;;;;18.00;5.77;;;4.70;92.70;;;;;;4953437;28;20441;-77
2021/04/05 05:10:16;;;;;;;16.17;6.00;;;4.80;92.20;;;;;;4953684;28;21118;-77
2021/04/05 05:12:42;;;;;;;13.50;5.30;;;4.80;92.80;;;;;;4954330;28;20804;-77
2021/04/05 05:15:10;;;;;;;16.60;6.10;;;4.90;91.90;;;;;;4957617;28;20415;-77
2021/04/05 05:17:43;;;;;;;11.97;6.43;;;4.90;92.70;;;;;;4957000;28;20466;-77
2021/04/05 05:20:11;;;;;;;16.00;5.90;;;5.20;91.10;;;;;;4957350;28;20395;-77
2021/04/05 05:22:40;;;;;;;10.63;6.03;;;5.40;90.20;;;;;;4956404;29;20465;-77
2021/04/05 05:25:07;;;;;;;13.20;5.83;;;5.30;91.20;;;;;;4956066;29;20434;-77
2021/04/05 05:27:37;;;;;;;13.23;5.17;;;5.40;90.90;;;;;;4955616;29;20429;-77
2021/04/05 05:30:07;;;;;;;20.53;6.20;;;5.40;91.20;;;;;;4957412;29;20500;-77
2021/04/05 05:32:35;;;;;;;8.50;5.83;;;5.50;91.10;;;;;;4957164;28;20494;-77
2021/04/05 05:35:01;;;;;;;11.13;6.43;;;5.50;92.20;;;;;;4957191;29;20910;-77
2021/04/05 05:37:27;;;;;;;13.20;5.70;;;5.50;92.20;;;;;;4956650;29;20425;-77
2021/04/05 05:39:52;;;;;;;11.33;5.70;;;5.60;91.90;;;;;;4957147;29;20406;-77
2021/04/05 05:42:36;;;;;;;14.53;5.90;;;5.60;91.60;;;;;;4955859;28;20203;-77
2021/04/05 05:45:07;;;;;;;12.43;5.50;;;5.70;90.50;;;;;;4957089;29;20174;-77
2021/04/05 05:47:57;;;;;;;14.30;6.00;;;5.70;91.00;;;;;;4956263;29;20469;-77
2021/04/05 05:50:31;;;;;;;10.43;4.23;;;5.60;91.80;;;;;;4956587;28;20850;-77
2021/04/05 05:53:21;;;;;;;19.40;6.80;;;5.70;90.70;;;;;;4956997;29;20900;-77
2021/04/05 05:56:22;;;;;;;17.20;7.47;;;5.80;91.50;;;;;;4956835;29;20457;-77
2021/04/05 05:59:31;;;;;;;14.97;6.43;;;5.70;92.50;;;;;;4955178;29;20418;-77
2021/04/05 06:02:26;;;;;;;12.03;5.93;;;5.80;92.30;;;;;;4956626;28;21016;-77
2021/04/05 06:05:25;;;;;;;15.67;5.90;;;5.90;91.00;;;;;;4950166;29;20510;-78
2021/04/05 06:07:50;;;;;;;12.50;5.50;;;6.00;90.70;;;;;;4956236;29;20829;-77
2021/04/05 06:10:28;;;;;;;9.93;5.97;;;6.10;89.60;;;;;;4956461;28;20415;-77
2021/04/05 06:13:09;;;;;;;17.00;6.27;;;6.30;89.80;;;;;;4956599;29;20686;-77
2021/04/05 06:16:13;;;;;;;14.33;5.50;;;6.40;89.60;;;;;;4956568;29;20910;-77
2021/04/05 06:19:14;;;;;;;11.33;5.43;;;6.60;89.40;;;;;;4945833;29;20419;-78
2021/04/05 06:22:00;;;;;;;9.50;4.40;;;6.90;87.40;;;;;;4943703;28;20442;-78
2021/04/05 06:24:45;;;;;;;17.33;8.57;;;7.30;85.60;;;;;;4955433;28;20415;-78
2021/04/05 06:27:26;;;;;;;14.27;4.80;;;7.60;84.90;;;;;;4955430;29;20410;-77
2021/04/05 06:29:58;;;;;;;12.73;7.50;;;7.70;84.70;;;;;;4956285;29;20403;-78
2021/04/05 06:32:52;;;;;;;13.50;6.20;;;7.70;84.50;;;;;;4956128;28;20450;-78
2021/04/05 06:35:40;;;;;;;12.80;5.33;;;7.70;84.30;;;;;;4956097;28;20949;-77
2021/04/05 06:38:16;;;;;;;12.77;5.00;;;7.50;84.60;;;;;;4955669;29;20879;-77
2021/04/05 06:40:43;;;;;;;11.63;5.70;;;7.20;85.10;;;;;;4956041;28;20430;-78
2021/04/05 06:43:46;;;;;;;11.07;5.10;;;7.00;85.10;;;;;;4956253;29;20421;-77
2021/04/05 06:46:36;;;;;;;22.87;5.53;;;7.00;86.90;;;;;;4955931;29;20483;-77
2021/04/05 06:49:40;;;;;;;10.60;5.10;;;7.00;85.20;;;;;;4955432;28;20971;-77
2021/04/05 06:52:13;;;;;;;20.47;5.80;;;6.80;87.10;;;;;;4955673;28;20457;-77
2021/04/05 06:55:14;;;;;;;9.40;4.60;;;6.90;87.00;;;;;;4956279;29;20418;-77
2021/04/05 06:58:06;;;;;;;9.70;4.50;;;6.90;86.50;;;;;;4953804;29;20411;-77
2021/04/05 07:00:40;;;;;;;14.57;6.00;;;6.90;85.80;;;;;;4955488;28;20446;-77
2021/04/05 07:03:16;;;;;;;8.70;3.63;;;6.90;86.90;;;;;;4954434;29;20426;-77
2021/04/05 07:06:12;;;;;;;11.40;4.40;;;7.10;86.80;;;;;;4955490;29;20429;-77
2021/04/05 07:09:10;;;;;;;11.63;5.00;;;7.20;84.20;;;;;;4954945;29;20409;-77
2021/04/05 07:11:59;;;;;;;10.90;5.03;;;7.20;83.60;;;;;;4944442;29;20462;-77
2021/04/05 07:14:47;;;;;;;15.90;4.47;;;7.10;83.90;;;;;;4954075;28;20419;-77
2021/04/05 07:17:15;;;;;;;7.10;3.77;;;7.10;83.90;;;;;;4954562;29;20417;-77
2021/04/05 07:19:58;;;;;;;10.80;4.23;;;7.10;84.40;;;;;;4955391;28;20418;-77
2021/04/05 07:22:50;;;;;;;9.10;5.20;;;7.00;84.00;;;;;;4955218;28;20945;-77
2021/04/05 07:25:46;;;;;;;8.73;3.67;;;7.00;83.20;;;;;;4946944;29;20838;-77
2021/04/05 07:28:30;;;;;;;10.57;5.03;;;7.00;82.90;;;;;;4954731;29;20523;-77
2021/04/05 07:31:08;;;;;;;21.13;4.63;;;7.00;84.10;;;;;;4954740;28;20427;-77
2021/04/05 07:33:38;;;;;;;8.00;4.40;;;7.00;83.50;;;;;;4955169;29;20430;-77
2021/04/05 07:36:22;;;;;;;10.00;4.00;;;7.10;84.00;;;;;;4954942;28;20510;-77
2021/04/05 07:39:16;;;;;;;10.37;4.10;;;7.00;84.10;;;;;;4954635;29;20394;-77
2021/04/05 07:41:58;;;;;;;21.80;5.20;;;7.00;84.80;;;;;;4954778;28;20771;-77
2021/04/05 07:44:29;;;;;;;8.53;4.03;;;7.10;83.10;;;;;;4954824;28;20410;-78
2021/04/05 07:47:04;;;;;;;10.53;4.80;;;7.10;83.40;;;;;;4954498;29;20474;-77
2021/04/05 07:49:37;;;;;;;12.63;4.33;;;7.10;83.70;;;;;;4954785;29;20474;-77
2021/04/05 07:52:25;;;;;;;10.97;5.00;;;7.30;83.50;;;;;;4954475;28;20465;-78
2021/04/05 07:54:51;;;;;;;10.03;5.50;;;7.30;84.90;;;;;;4954912;29;20937;-78
2021/04/05 07:57:28;;;;;;;13.13;5.17;;;7.30;86.50;;;;;;4954449;29;20415;-77
2021/04/05 08:00:08;;;;;;;13.40;5.40;;;7.20;85.90;;;;;;4954745;28;20905;-77
2021/04/05 08:03:03;;;;;;;10.87;5.60;;;7.20;86.10;;;;;;4954579;28;20450;-78
2021/04/05 08:05:45;;;;;;;10.60;4.40;;;7.20;88.00;;;;;;4954873;29;20427;-78
2021/04/05 08:08:38;;;;;;;11.30;4.70;;;7.30;85.60;;;;;;4952821;29;20953;-78
2021/04/05 08:11:21;;;;;;;11.40;5.80;;;7.60;86.70;;;;;;4954263;28;20524;-78
2021/04/05 08:13:55;;;;;;;12.53;5.30;;;7.80;86.10;;;;;;4954421;29;20399;-78
2021/04/05 08:16:59;;;;;;;15.27;5.27;;;7.90;86.10;;;;;;4954403;29;20410;-78
2021/04/05 08:20:02;;;;;;;10.53;5.60;;;8.10;85.00;;;;;;4954379;29;20426;-79
2021/04/05 08:22:47;;;;;;;14.37;5.43;;;8.50;86.40;;;;;;4954139;28;20433;-78
2021/04/05 08:25:14;;;;;;;13.77;5.60;;;9.10;83.60;;;;;;4954379;29;20433;-78
2021/04/05 08:28:10;;;;;;;11.53;5.07;;;9.20;83.40;;;;;;4952465;29;20931;-78
2021/04/05 08:30:43;;;;;;;13.07;5.30;;;9.00;83.90;;;;;;4954262;28;20426;-78
2021/04/05 08:33:40;;;;;;;17.63;6.30;;;9.20;84.00;;;;;;4952978;29;20482;-78
2021/04/05 08:36:30;;;;;;;10.03;5.10;;;8.90;83.00;;;;;;4954181;29;20910;-78
2021/04/05 08:39:04;;;;;;;10.97;5.83;;;9.20;82.70;;;;;;4953787;28;20398;-78
2021/04/05 08:42:01;;;;;;;10.97;5.27;;;9.40;83.10;;;;;;4954041;28;20446;-78
2021/04/05 08:44:43;;;;;;;15.13;5.63;;;9.20;83.10;;;;;;4953555;29;20437;-79
2021/04/05 08:47:14;;;;;;;14.70;5.60;;;9.50;82.50;;;;;;4952752;29;20399;-79
2021/04/05 08:49:45;;;;;;;11.23;5.70;;;9.70;83.20;;;;;;4954096;29;20395;-78
2021/04/05 08:52:12;;;;;;;14.27;5.80;;;9.70;81.90;;;;;;4953848;28;21016;-79
2021/04/05 08:54:40;;;;;;;10.33;5.80;;;9.60;82.20;;;;;;4953880;28;20407;-79
2021/04/05 08:57:16;;;;;;;9.50;5.60;;;9.80;84.50;;;;;;4953325;29;20419;-79
2021/04/05 09:00:03;;;;;;;12.27;6.50;;;9.90;83.50;;;;;;4954149;29;20415;-79
2021/04/05 09:02:37;;;;;;;12.60;6.60;;;10.30;82.30;;;;;;4953925;28;20469;-78
2021/04/05 09:05:09;;;;;;;9.87;5.57;;;9.80;84.70;;;;;;4953985;29;20898;-79
2021/04/05 09:07:34;;;;;;;14.07;6.80;;;9.50;85.30;;;;;;4952075;29;20941;-78
2021/04/05 09:10:08;;;;;;;14.37;6.60;;;9.30;86.50;;;;;;4953886;28;20414;-78
2021/04/05 09:12:34;;;;;;;17.20;7.67;;;9.30;86.70;;;;;;4953664;28;20209;-78
2021/04/05 09:15:19;;;;;;;10.40;5.47;;;8.90;86.60;;;;;;4952729;29;20422;-79
2021/04/05 09:18:25;;;;;;;12.13;6.20;;;8.60;88.00;;;;;;4952012;28;20937;-79
2021/04/05 09:21:22;;;;;;;12.40;7.07;;;8.50;89.70;;;;;;4953467;28;20958;-79
2021/04/05 09:24:21;;;;;;;13.70;6.50;;;8.60;89.90;;;;;;4954087;28;20506;-78
2021/04/05 09:27:14;;;;;;;10.03;5.27;;;8.80;89.90;;;;;;4953687;29;20925;-78
2021/04/05 09:29:45;;;;;;;17.93;7.07;;;8.30;89.20;;;;;;4952498;29;20833;-78
2021/04/05 09:32:45;;;;;;;9.40;5.90;;;8.50;89.90;;;;;;4953398;28;20493;-79
2021/04/05 09:35:33;;;;;;;12.70;6.50;;;8.60;89.70;;;;;;4952392;29;20922;-78
2021/04/05 09:38:06;;;;;;;17.30;8.60;;;8.40;91.10;;;;;;4946731;28;20425;-78
2021/04/05 09:40:58;;;;;;;17.13;5.90;;;8.20;92.00;;;;;;4953652;28;20430;-78
2021/04/05 09:43:56;;;;;;;13.30;6.47;;;8.30;91.70;;;;;;4953484;29;20399;-78
2021/04/05 09:46:52;;;;;;;19.77;6.63;;;8.30;91.00;;;;;;4953701;28;20489;-78
2021/04/05 09:49:55;;;;;;;14.27;5.60;;;8.50;92.30;;;;;;4952952;28;20461;-78
2021/04/05 09:52:45;;;;;;;12.87;6.33;;;8.00;91.70;;;;;;4953332;28;20469;-79
2021/04/05 09:55:12;;;;;;;12.03;6.57;;;7.80;93.40;;;;;;4952245;29;20562;-78
2021/04/05 09:57:39;;;;;;;15.10;7.70;;;7.60;93.60;;;;;;4952895;29;20482;-79
2021/04/05 10:00:11;;;;;;;11.47;6.37;;;7.60;93.80;;;;;;4954855;28;20406;-79
2021/04/05 10:02:45;;;;;;;11.20;6.73;;;7.60;94.00;;;;;;4955344;28;20972;-78
2021/04/05 10:05:12;;;;;;;16.20;7.77;;;7.40;94.30;;;;;;4957106;29;20426;-78
2021/04/05 10:07:42;;;;;;;13.63;7.20;;;7.50;95.40;;;;;;4956763;29;20410;-79
2021/04/05 10:10:11;;;;;;;14.13;7.20;;;7.60;95.30;;;;;;4957158;29;20421;-78
2021/04/05 10:12:37;;;;;;;15.10;6.60;;;7.60;94.60;;;;;;4957018;29;20514;-79
2021/04/05 10:15:04;;;;;;;12.10;6.23;;;7.70;96.00;;;;;;4956868;29;20428;-78
2021/04/05 10:17:32;;;;;;;19.90;6.27;;;7.70;94.50;;;;;;4956334;29;20917;-78
2021/04/05 10:20:01;;;;;;;14.30;6.83;;;7.50;94.90;;;;;;4957053;28;20414;-78
2021/04/05 10:22:28;;;;;;;9.17;5.53;;;7.50;95.40;;;;;;4955380;28;20541;-78
2021/04/05 10:24:59;;;;;;;15.57;7.17;;;7.30;95.00;;;;;;4956538;29;20508;-78
2021/04/05 10:27:27;;;;;;;14.33;7.10;;;7.20;96.30;;;;;;4956043;29;20403;-78
2021/04/05 10:29:55;;;;;;;12.40;6.57;;;7.20;96.10;;;;;;4955334;29;20767;-78
2021/04/05 10:32:23;;;;;;;14.07;6.90;;;7.30;95.60;;;;;;4956326;28;20494;-78
2021/04/05 10:34:56;;;;;;;17.03;6.70;;;7.20;96.10;;;;;;4956310;28;20497;-77
2021/04/05 10:37:32;;;;;;;12.37;6.23;;;7.10;95.60;;;;;;4955594;29;20484;-77
2021/04/05 10:39:59;;;;;;;16.40;6.63;;;7.10;95.90;;;;;;4956287;29;20514;-77
2021/04/05 10:42:27;;;;;;;13.87;6.87;;;7.10;95.70;;;;;;4955890;28;20441;-78
2021/04/05 10:45:01;;;;;;;9.40;6.20;;;7.20;96.30;;;;;;4956325;29;20994;-78
2021/04/05 10:47:34;;;;;;;10.67;6.37;;;7.20;96.30;;;;;;4956294;29;20462;-78
2021/04/05 10:50:03;;;;;;;9.77;6.30;;;7.00;95.80;;;;;;4956248;29;20403;-78
2021/04/05 10:52:38;;;;;;;11.80;6.43;;;6.80;96.30;;;;;;4955763;28;20454;-78
2021/04/05 10:55:21;;;;;;;11.80;7.00;;;6.60;96.30;;;;;;4955960;29;20406;-78
2021/04/05 10:57:53;;;;;;;11.60;6.40;;;6.30;96.30;;;;;;4955394;29;20486;-78
2021/04/05 11:00:23;;;;;;;15.27;6.40;;;6.20;96.30;;;;;;4955656;28;20771;-78
2021/04/05 11:02:54;;;;;;;11.47;7.43;;;6.10;96.30;;;;;;4955808;29;20407;-78
2021/04/05 11:05:22;;;;;;;12.30;6.53;;;6.10;96.30;;;;;;4955833;29;20407;-78
2021/04/05 11:07:57;;;;;;;11.60;6.60;;;5.90;96.30;;;;;;4955214;29;20429;-79
2021/04/05 11:10:25;;;;;;;10.73;5.80;;;5.60;96.30;;;;;;4955288;28;20434;-79
2021/04/05 11:12:56;;;;;;;15.33;7.90;;;5.40;96.30;;;;;;4955205;28;20553;-79
2021/04/05 11:15:24;;;;;;;15.53;7.47;;;5.20;96.30;;;;;;4954547;29;20403;-79
2021/04/05 11:17:53;;;;;;;9.83;7.07;;;5.20;96.30;;;;;;4955048;28;20414;-79
2021/04/05 11:20:21;;;;;;;15.47;9.00;;;5.00;96.30;;;;;;4955767;28;20418;-79
2021/04/05 11:23:01;;;;;;;10.80;6.90;;;5.00;96.30;;;;;;4955534;29;20781;-79
2021/04/05 11:25:32;;;;;;;15.83;7.27;;;5.00;96.30;;;;;;4955448;29;20430;-78
2021/04/05 11:28:12;;;;;;;10.77;6.47;;;5.00;96.30;;;;;;4954905;29;20425;-78
2021/04/05 11:30:39;;;;;;;9.83;6.90;;;4.90;96.30;;;;;;4954116;28;20438;-78
2021/04/05 11:33:08;;;;;;;13.43;8.53;;;4.80;96.30;;;;;;4955073;29;20481;-77
2021/04/05 11:35:35;;;;;;;21.77;8.10;;;4.90;96.30;;;;;;4955138;29;20458;-78
2021/04/05 11:38:12;;;;;;;17.17;9.43;;;4.80;96.30;;;;;;4954743;29;20453;-77
2021/04/05 11:40:40;;;;;;;12.60;8.00;;;4.80;96.30;;;;;;4954028;28;20442;-78
2021/04/05 11:43:20;;;;;;;15.17;7.93;;;4.70;96.30;;;;;;4955090;28;20419;-77
2021/04/05 11:45:52;;;;;;;15.70;8.23;;;4.70;96.30;;;;;;4954579;29;20477;-77
2021/04/05 11:48:22;;;;;;;9.63;7.10;;;4.70;96.30;;;;;;4954411;29;20418;-77
2021/04/05 11:50:51;;;;;;;13.10;5.97;;;4.70;96.30;;;;;;4953579;28;20978;-78
2021/04/05 11:53:33;;;;;;;12.93;7.97;;;4.60;96.30;;;;;;4954774;28;20454;-77
2021/04/05 11:56:26;;;;;;;15.00;7.73;;;4.50;96.30;;;;;;4954771;29;20395;-77
2021/04/05 11:58:58;;;;;;;17.97;9.10;;;4.50;96.30;;;;;;4954180;29;20534;-77
2021/04/05 12:01:24;;;;;;;12.03;7.37;;;4.40;96.30;;;;;;4954542;28;21023;-75
2021/04/05 12:03:59;;;;;;;16.27;8.10;;;4.20;96.30;;;;;;4954698;29;20950;-76
2021/04/05 12:06:34;;;;;;;11.90;7.80;;;4.20;96.30;;;;;;4954676;29;20398;-76
2021/04/05 12:09:28;;;;;;;18.77;8.90;;;4.30;96.30;;;;;;4954067;29;20410;-76
2021/04/05 12:12:03;;;;;;;12.53;8.93;;;4.20;96.30;;;;;;4950509;28;20470;-76
2021/04/05 12:14:30;;;;;;;10.40;7.87;;;4.20;96.30;;;;;;4954555;29;20413;-75
2021/04/05 12:16:58;;;;;;;13.43;6.80;;;4.20;96.30;;;;;;4954034;29;21021;-76
2021/04/05 12:19:31;;;;;;;14.10;7.70;;;4.20;96.30;;;;;;4954320;29;20449;-76
2021/04/05 12:21:58;;;;;;;13.53;8.13;;;4.10;96.30;;;;;;4953700;28;20442;-75
2021/04/05 12:24:28;;;;;;;8.80;6.63;;;4.20;96.30;;;;;;4954232;29;20411;-75
2021/04/05 12:26:56;;;;;;;11.60;7.47;;;4.20;96.30;;;;;;4953976;29;20413;-76
2021/04/05 12:29:24;;;;;;;12.83;7.83;;;4.20;96.30;;;;;;4953630;29;20545;-75
2021/04/05 12:31:55;;;;;;;9.63;6.97;;;4.10;96.30;;;;;;4952906;28;20462;-75
2021/04/05 12:34:27;;;;;;;11.70;5.83;;;4.00;96.30;;;;;;4952845;29;20418;-75
2021/04/05 12:36:53;;;;;;;10.57;7.60;;;4.00;96.30;;;;;;4954250;29;20407;-76
2021/04/05 12:39:19;;;;;;;4.47;3.87;;;4.00;96.30;;;;;;4952345;29;20446;-76
2021/04/05 12:41:46;;;;;;;1.57;1.00;;;3.80;96.30;;;;;;4954222;28;20517;-76
2021/04/05 12:44:17;;;;;;;0.80;0.40;;;2.50;96.30;;;;;;4954272;29;20502;-75
2021/04/05 12:46:50;;;;;;;0.80;0.50;;;1.20;96.30;;;;;;4954066;29;20399;-77
2021/04/05 12:49:23;;;;;;;0.73;0.40;;;0.50;96.30;;;;;;4953790;29;20458;-77
2021/04/05 12:51:54;;;;;;;0.80;0.50;;;0.10;96.30;;;;;;4953819;28;20863;-76
2021/04/05 12:54:21;;;;;;;0.80;0.50;;;0.00;96.30;;;;;;4954022;29;20911;-77
2021/04/05 12:56:50;;;;;;;0.70;0.40;;;0.00;96.30;;;;;;4953977;29;20512;-76
2021/04/05 12:59:24;;;;;;;0.80;0.50;;;0.00;96.30;;;;;;4953515;29;20414;-77
2021/04/05 13:01:53;;;;;;;0.80;0.50;;;0.00;96.30;;;;;;4953803;28;20450;-76
2021/04/05 13:04:25;;;;;;;1.80;0.40;;;0.00;96.30;;;;;;4953917;28;20417;-76
2021/04/05 13:06:58;;;;;;;0.80;0.50;;;-0.10;96.30;;;;;;4953879;29;20777;-76
2021/04/05 13:09:30;;;;;;;0.80;0.50;;;-0.10;96.30;;;;;;4952210;29;20415;-76
2021/04/05 13:12:04;;;;;;;0.80;0.50;;;0.00;96.30;;;;;;4953758;28;20565;-76
2021/04/05 13:14:35;;;;;;;0.70;0.40;;;0.00;96.30;;;;;;4953858;29;20486;-76
2021/04/05 13:17:05;;;;;;;0.80;0.50;;;0.10;96.30;;;;;;4953194;29;20413;-76
2021/04/05 13:19:41;;;;;;;0.80;0.70;;;0.20;96.30;;;;;;4953645;28;20415;-76
2021/04/05 13:22:16;;;;;;;1.20;1.10;;;0.20;96.30;;;;;;4953679;28;20532;-76
2021/04/05 13:24:51;;;;;;;1.00;0.60;;;0.30;96.30;;;;;;4953731;29;20441;-75
2021/04/05 13:27:26;;;;;;;0.90;0.70;;;0.50;96.30;;;;;;4953149;29;20399;-76
2021/04/05 13:29:54;;;;;;;0.80;0.70;;;0.50;96.30;;;;;;4953607;29;20460;-76
2021/04/05 13:32:26;;;;;;;1.20;1.00;;;0.60;96.30;;;;;;4953576;28;20796;-76
2021/04/05 13:34:59;;;;;;;1.10;1.00;;;0.80;96.30;;;;;;4956372;28;20410;-75
2021/04/05 13:37:25;;;;;;;2.50;1.33;;;0.80;96.30;;;;;;4955607;29;20808;-75
2021/04/05 13:39:51;;;;;;;1.20;1.10;;;0.90;96.30;;;;;;4957210;29;20844;-76
2021/04/05 13:42:22;;;;;;;1.13;1.00;;;1.00;96.30;;;;;;4957268;28;20811;-76
2021/04/05 13:44:51;;;;;;;1.63;1.53;;;0.90;96.30;;;;;;4957167;29;20898;-76
2021/04/05 13:47:23;;;;;;;1.60;1.50;;;1.10;96.30;;;;;;4955044;29;20421;-76
2021/04/05 13:50:01;;;;;;;1.30;1.20;;;1.20;96.30;;;;;;4957400;29;20895;-75
2021/04/05 13:52:29;;;;;;;1.53;1.20;;;1.10;96.30;;;;;;4956815;28;20484;-75
2021/04/05 13:55:00;;;;;;;3.10;1.20;;;1.30;96.30;;;;;;4957011;29;20411;-75
2021/04/05 13:57:34;;;;;;;1.17;1.07;;;1.50;96.30;;;;;;4956489;29;20399;-76
2021/04/05 14:00:10;;;;;;;1.87;0.80;;;1.60;96.30;;;;;;4956997;29;20469;-75
2021/04/05 14:02:43;;;;;;;2.80;0.87;;;1.50;96.30;;;;;;4956564;28;20549;-75
2021/04/05 14:05:15;;;;;;;1.00;0.80;;;1.30;96.30;;;;;;4956861;29;20406;-74
2021/04/05 14:07:42;;;;;;;1.60;0.90;;;1.20;96.30;;;;;;4954988;29;20447;-74
2021/04/05 14:10:08;;;;;;;1.20;0.80;;;1.10;96.30;;;;;;4956699;29;20555;-74
2021/04/05 14:12:38;;;;;;;1.10;0.90;;;1.20;96.30;;;;;;4956593;28;20470;-74
2021/04/05 14:15:05;;;;;;;0.90;0.60;;;1.20;96.30;;;;;;4956645;29;20399;-74
2021/04/05 14:17:34;;;;;;;1.50;0.90;;;1.10;96.30;;;;;;4955977;29;20957;-74
2021/04/05 14:20:06;;;;;;;1.20;0.90;;;0.90;96.30;;;;;;4956589;29;20419;-74
2021/04/05 14:22:37;;;;;;;1.67;1.23;;;0.80;96.30;;;;;;4956096;28;20947;-75
2021/04/05 14:25:26;;;;;;;2.80;1.10;;;0.70;96.30;;;;;;4955293;29;20418;-75
2021/04/05 14:28:04;;;;;;;1.07;0.97;;;0.70;96.30;;;;;;4955953;29;20890;-74
2021/04/05 14:30:33;;;;;;;1.30;1.20;;;0.70;96.30;;;;;;4956489;28;20409;-75
2021/04/05 14:33:03;;;;;;;2.20;1.10;;;0.70;96.30;;;;;;4955019;29;20803;-74
2021/04/05 14:35:34;;;;;;;1.03;0.93;;;0.60;96.30;;;;;;4956299;29;20443;-74
2021/04/05 14:38:06;;;;;;;1.23;0.93;;;0.50;96.30;;;;;;4955997;29;20391;-74
2021/04/05 14:40:36;;;;;;;1.07;0.97;;;0.50;96.30;;;;;;4956161;28;20427;-74
2021/04/05 14:43:15;;;;;;;2.87;1.00;;;0.40;96.30;;;;;;4956215;29;20450;-75
2021/04/05 14:45:44;;;;;;;1.50;0.90;;;0.40;96.30;;;;;;4955455;28;20410;-75
2021/04/05 14:48:10;;;;;;;0.97;0.70;;;0.20;96.30;;;;;;4955910;29;20765;-74
2021/04/05 14:50:43;;;;;;;1.03;0.80;;;-0.30;96.30;;;;;;4956111;28;20426;-74
2021/04/05 14:53:12;;;;;;;1.00;0.87;;;-0.50;96.30;;;;;;4955979;29;20965;-74
2021/04/05 14:55:41;;;;;;;0.93;0.77;;;-0.50;96.30;;;;;;4954779;28;20430;-75
2021/04/05 14:58:24;;;;;;;0.80;0.70;;;-0.60;96.30;;;;;;4955795;29;20411;-74
2021/04/05 15:00:56;;;;;;;0.70;0.50;;;-0.80;96.30;;;;;;4955735;28;20482;-74
2021/04/05 15:03:30;;;;;;;0.90;0.70;;;-0.90;96.30;;;;;;4955867;29;20414;-74
2021/04/05 15:06:04;;;;;;;0.90;0.70;;;-0.90;96.30;;;;;;4955998;29;20461;-75
2021/04/05 15:08:39;;;;;;;3.80;0.60;;;-0.80;96.30;;;;;;4955585;29;20437;-75
2021/04/05 15:11:07;;;;;;;1.23;0.80;;;-0.80;96.30;;;;;;4955754;28;20449;-75
2021/04/05 15:13:35;;;;;;;0.80;0.50;;;-0.80;96.30;;;;;;4955633;28;20505;-74
2021/04/05 15:16:06;;;;;;;0.97;0.60;;;-0.90;96.30;;;;;;4955669;29;20405;-75
2021/04/05 15:18:34;;;;;;;0.77;0.53;;;-1.00;96.30;;;;;;4955436;29;20395;-74
2021/04/05 15:21:05;;;;;;;0.80;0.50;;;-1.30;96.30;;;;;;4955529;28;20623;-74
2021/04/05 15:23:36;;;;;;;0.80;0.60;;;-1.40;96.30;;;;;;4954296;29;20442;-75
2021/04/05 15:26:05;;;;;;;0.80;0.70;;;-1.40;96.30;;;;;;4955602;28;20406;-74
2021/04/05 15:28:34;;;;;;;0.80;0.60;;;-1.40;96.30;;;;;;4955418;29;20422;-75
2021/04/05 15:31:02;;;;;;;0.80;0.60;;;-1.40;96.30;;;;;;4955511;28;20423;-75
2021/04/05 15:33:31;;;;;;;0.80;0.60;;;-1.40;96.30;;;;;;4955176;29;20468;-75
2021/04/05 15:35:57;;;;;;;1.10;0.70;;;-1.40;96.30;;;;;;4955313;29;20412;-75
2021/04/05 15:38:37;;;;;;;0.80;0.50;;;-1.30;96.30;;;;;;4955024;29;20410;-75
2021/04/05 15:41:09;;;;;;;3.53;0.60;;;-1.20;96.30;;;;;;4955024;28;20429;-76
2021/04/05 15:43:40;;;;;;;0.80;0.50;;;-1.30;96.30;;;;;;4955038;29;20450;-76
2021/04/05 15:46:17;;;;;;;1.10;0.70;;;-1.30;96.30;;;;;;4955208;29;20871;-76
2021/04/05 15:48:53;;;;;;;0.97;0.60;;;-1.20;96.30;;;;;;4953544;29;20403;-76
2021/04/05 15:51:41;;;;;;;2.43;0.60;;;-1.20;96.30;;;;;;4954911;28;20434;-76
2021/04/05 15:54:14;;;;;;;1.30;0.80;;;-1.20;96.30;;;;;;4955011;29;20394;-76
2021/04/05 15:56:48;;;;;;;2.40;0.97;;;-1.10;96.30;;;;;;4954826;28;20794;-76
2021/04/05 15:59:20;;;;;;;1.30;1.20;;;-1.00;96.30;;;;;;4954777;29;20407;-76
2021/04/05 16:01:48;;;;;;;3.63;1.70;;;-1.00;96.30;;;;;;4953479;28;20558;-75
2021/04/05 16:04:42;;;;;;;2.50;1.50;;;-1.00;96.30;;;;;;4954828;29;20412;-76
2021/04/05 16:07:15;;;;;;;3.97;2.27;;;-0.90;96.30;;;;;;4954729;29;20501;-75
2021/04/05 16:09:47;;;;;;;3.60;2.17;;;-1.10;96.30;;;;;;4954658;28;20406;-75
2021/04/05 16:12:25;;;;;;;2.23;2.03;;;-1.20;96.30;;;;;;4954597;28;20462;-76
2021/04/05 16:14:52;;;;;;;5.90;2.10;;;-1.30;96.30;;;;;;4975071;23;20584;-75
2021/04/05 16:17:27;;;;;;;2.00;1.80;;;-1.30;96.30;;;;;;4953876;29;20411;-75
2021/04/05 16:20:04;;;;;;;1.50;1.40;;;-1.40;96.30;;;;;;4954519;29;20398;-74
2021/04/05 16:22:34;;;;;;;1.60;1.50;;;-1.40;96.30;;;;;;4954463;29;20426;-76
2021/04/05 16:25:02;;;;;;;1.20;1.10;;;-1.40;96.30;;;;;;4937046;29;20474;-75
2021/04/05 16:27:30;;;;;;;1.40;1.10;;;-1.80;96.30;;;;;;4953974;29;20798;-76
2021/04/05 16:29:58;;;;;;;1.10;0.83;;;-1.90;96.30;;;;;;4954213;29;20902;-75
2021/04/05 16:32:29;;;;;;;2.70;1.13;;;-2.10;96.30;;;;;;4954215;29;20470;-74
2021/04/05 16:34:58;;;;;;;3.43;0.80;;;-2.30;96.30;;;;;;4953979;28;20433;-73
2021/04/05 16:37:35;;;;;;;1.00;0.60;;;-2.40;96.30;;;;;;4953341;28;20790;-74
2021/04/05 16:40:08;;;;;;;1.50;0.77;;;-2.50;96.30;;;;;;4936893;29;20422;-74
2021/04/05 16:42:48;;;;;;;5.73;0.80;;;-2.50;96.30;;;;;;4953999;29;20414;-74
2021/04/05 16:45:17;;;;;;;0.90;0.80;;;-2.50;96.30;;;;;;4954052;28;20462;-74
2021/04/05 16:47:49;;;;;;;1.37;0.80;;;-2.50;96.30;;;;;;4953748;28;20415;-76
2021/04/05 16:50:30;;;;;;;1.67;0.80;;;-2.50;96.30;;;;;;4953749;29;20450;-73
2021/04/05 16:53:01;;;;;;;2.30;0.90;;;-2.40;96.30;;;;;;4954039;29;20466;-71
2021/04/05 16:55:29;;;;;;;1.10;0.80;;;-2.40;96.30;;;;;;4953750;28;20446;-72
2021/04/05 16:58:01;;;;;;;1.77;1.10;;;-2.40;96.30;;;;;;4953557;29;20520;-76
2021/04/05 17:00:36;;;;;;;1.30;0.70;;;-2.40;96.30;;;;;;4953975;29;20502;-73
2021/04/05 17:03:12;;;;;;;3.53;0.70;;;-2.40;96.30;;;;;;4953804;29;20417;-71
2021/04/05 17:05:41;;;;;;;1.47;1.00;;;-2.40;96.30;;;;;;4953796;28;20426;-72
2021/04/05 17:08:29;;;;;;;3.47;0.93;;;-2.50;96.30;;;;;;4953331;28;20422;-72
2021/04/05 17:11:01;;;;;;;2.27;1.07;;;-2.60;96.30;;;;;;4957536;29;20415;-72
2021/04/05 17:13:32;;;;;;;0.90;0.70;;;-2.70;96.30;;;;;;4955037;29;20454;-73
2021/04/05 17:15:59;;;;;;;1.33;0.77;;;-2.70;96.30;;;;;;4956284;28;20450;-73
2021/04/05 17:18:29;;;;;;;3.30;1.53;;;-2.70;96.30;;;;;;4955678;29;20423;-72
2021/04/05 17:21:07;;;;;;;5.67;1.00;;;-2.80;96.30;;;;;;4935963;29;20462;-71
2021/04/05 17:23:41;;;;;;;1.30;0.90;;;-2.80;96.30;;;;;;4957089;29;20445;-73
2021/04/05 17:26:18;;;;;;;4.53;1.27;;;-2.80;96.30;;;;;;4956899;29;20805;-71
2021/04/05 17:28:52;;;;;;;7.43;1.40;;;-2.80;96.30;;;;;;4956361;29;20457;-70
2021/04/05 17:31:18;;;;;;;1.80;0.90;;;-2.80;96.30;;;;;;4955654;29;20530;-72